sensor_id;sensor_type;location;lat;lon;timestamp;temperature;humidity
51007;DHT22;37034;47.886;-3.904;2023-06-14T00:00:39;22.00;80.70
51007;DHT22;37034;47.886;-3.904;2023-06-14T00:03:07;22.00;80.80
51007;DHT22;37034;47.886;-3.904;2023-06-14T00:05:35;21.90;80.90
51007;DHT22;37034;47.886;-3.904;2023-06-14T00:08:06;21.90;81.20
51007;DHT22;37034;47.886;-3.904;2023-06-14T00:10:35;21.80;80.80
51007;DHT22;37034;47.886;-3.904;2023-06-14T00:13:04;21.80;81.20
51007;DHT22;37034;47.886;-3.904;2023-06-14T00:15:31;21.80;81.70
51007;DHT22;37034;47.886;-3.904;2023-06-14T00:17:57;21.70;81.70
51007;DHT22;37034;47.886;-3.904;2023-06-14T00:20:29;21.60;81.60
51007;DHT22;37034;47.886;-3.904;2023-06-14T00:22:56;21.60;81.60
51007;DHT22;37034;47.886;-3.904;2023-06-14T00:25:25;21.50;81.40
51007;DHT22;37034;47.886;-3.904;2023-06-14T00:27:51;21.50;81.60
51007;DHT22;37034;47.886;-3.904;2023-06-14T00:30:17;21.50;82.00
51007;DHT22;37034;47.886;-3.904;2023-06-14T00:32:44;21.40;81.70
51007;DHT22;37034;47.886;-3.904;2023-06-14T00:35:10;21.50;82.20
51007;DHT22;37034;47.886;-3.904;2023-06-14T00:37:36;21.40;81.80
51007;DHT22;37034;47.886;-3.904;2023-06-14T00:40:03;21.40;81.80
51007;DHT22;37034;47.886;-3.904;2023-06-14T00:42:30;21.30;81.90
51007;DHT22;37034;47.886;-3.904;2023-06-14T00:44:56;21.30;82.20
51007;DHT22;37034;47.886;-3.904;2023-06-14T00:47:22;21.20;82.10
51007;DHT22;37034;47.886;-3.904;2023-06-14T00:49:49;21.20;82.30
51007;DHT22;37034;47.886;-3.904;2023-06-14T00:52:16;21.10;82.50
51007;DHT22;37034;47.886;-3.904;2023-06-14T00:54:43;21.10;82.30
51007;DHT22;37034;47.886;-3.904;2023-06-14T00:57:12;21.00;82.60
51007;DHT22;37034;47.886;-3.904;2023-06-14T00:59:44;21.00;83.20
51007;DHT22;37034;47.886;-3.904;2023-06-14T01:02:11;20.90;83.00
51007;DHT22;37034;47.886;-3.904;2023-06-14T01:04:37;20.70;83.20
51007;DHT22;37034;47.886;-3.904;2023-06-14T01:07:23;20.70;84.50
51007;DHT22;37034;47.886;-3.904;2023-06-14T01:12:34;20.60;83.80
51007;DHT22;37034;47.886;-3.904;2023-06-14T01:15:02;20.60;84.20
51007;DHT22;37034;47.886;-3.904;2023-06-14T01:17:29;20.60;83.60
51007;DHT22;37034;47.886;-3.904;2023-06-14T01:19:59;20.60;83.80
51007;DHT22;37034;47.886;-3.904;2023-06-14T01:22:26;20.50;83.80
51007;DHT22;37034;47.886;-3.904;2023-06-14T01:24:53;20.40;83.80
51007;DHT22;37034;47.886;-3.904;2023-06-14T01:27:24;20.40;84.00
51007;DHT22;37034;47.886;-3.904;2023-06-14T01:29:55;20.50;84.20
51007;DHT22;37034;47.886;-3.904;2023-06-14T01:32:26;20.50;83.80
51007;DHT22;37034;47.886;-3.904;2023-06-14T01:34:53;20.50;83.90
51007;DHT22;37034;47.886;-3.904;2023-06-14T01:37:20;20.40;83.60
51007;DHT22;37034;47.886;-3.904;2023-06-14T01:39:48;20.40;83.70
51007;DHT22;37034;47.886;-3.904;2023-06-14T01:42:16;20.40;84.10
51007;DHT22;37034;47.886;-3.904;2023-06-14T01:44:42;20.40;83.80
51007;DHT22;37034;47.886;-3.904;2023-06-14T01:47:08;20.40;84.70
51007;DHT22;37034;47.886;-3.904;2023-06-14T01:49:34;20.40;83.80
51007;DHT22;37034;47.886;-3.904;2023-06-14T01:52:01;20.20;84.10
51007;DHT22;37034;47.886;-3.904;2023-06-14T01:54:26;20.20;84.20
51007;DHT22;37034;47.886;-3.904;2023-06-14T01:56:53;20.20;84.20
51007;DHT22;37034;47.886;-3.904;2023-06-14T01:59:18;20.20;84.10
51007;DHT22;37034;47.886;-3.904;2023-06-14T02:01:44;20.20;84.40
51007;DHT22;37034;47.886;-3.904;2023-06-14T02:04:13;20.10;84.60
51007;DHT22;37034;47.886;-3.904;2023-06-14T02:06:38;20.10;84.50
51007;DHT22;37034;47.886;-3.904;2023-06-14T02:09:04;20.10;84.70
51007;DHT22;37034;47.886;-3.904;2023-06-14T02:11:30;20.10;84.50
51007;DHT22;37034;47.886;-3.904;2023-06-14T02:13:55;20.10;85.10
51007;DHT22;37034;47.886;-3.904;2023-06-14T02:16:21;20.10;84.80
51007;DHT22;37034;47.886;-3.904;2023-06-14T02:18:47;20.10;85.00
51007;DHT22;37034;47.886;-3.904;2023-06-14T02:21:14;20.10;84.70
51007;DHT22;37034;47.886;-3.904;2023-06-14T02:23:40;20.00;84.80
51007;DHT22;37034;47.886;-3.904;2023-06-14T02:26:05;20.00;85.80
51007;DHT22;37034;47.886;-3.904;2023-06-14T02:28:31;20.00;85.20
51007;DHT22;37034;47.886;-3.904;2023-06-14T02:30:57;19.90;85.20
51007;DHT22;37034;47.886;-3.904;2023-06-14T02:33:22;19.90;85.30
51007;DHT22;37034;47.886;-3.904;2023-06-14T02:35:48;19.90;85.20
51007;DHT22;37034;47.886;-3.904;2023-06-14T02:38:14;19.80;85.40
51007;DHT22;37034;47.886;-3.904;2023-06-14T02:40:39;19.90;85.40
51007;DHT22;37034;47.886;-3.904;2023-06-14T02:43:07;19.90;85.50
51007;DHT22;37034;47.886;-3.904;2023-06-14T02:45:33;19.80;85.30
51007;DHT22;37034;47.886;-3.904;2023-06-14T02:47:59;19.80;85.80
51007;DHT22;37034;47.886;-3.904;2023-06-14T02:50:24;19.80;85.60
51007;DHT22;37034;47.886;-3.904;2023-06-14T02:52:50;19.80;85.70
51007;DHT22;37034;47.886;-3.904;2023-06-14T02:55:17;19.80;85.60
51007;DHT22;37034;47.886;-3.904;2023-06-14T02:57:43;19.80;85.40
51007;DHT22;37034;47.886;-3.904;2023-06-14T03:00:09;19.80;85.60
51007;DHT22;37034;47.886;-3.904;2023-06-14T03:02:38;19.80;85.50
51007;DHT22;37034;47.886;-3.904;2023-06-14T03:05:04;19.90;85.50
51007;DHT22;37034;47.886;-3.904;2023-06-14T03:07:31;19.90;85.50
51007;DHT22;37034;47.886;-3.904;2023-06-14T03:09:58;19.90;85.40
51007;DHT22;37034;47.886;-3.904;2023-06-14T03:12:23;19.80;85.40
51007;DHT22;37034;47.886;-3.904;2023-06-14T03:14:50;19.80;85.40
51007;DHT22;37034;47.886;-3.904;2023-06-14T03:17:16;19.80;86.00
51007;DHT22;37034;47.886;-3.904;2023-06-14T03:19:43;19.80;85.30
51007;DHT22;37034;47.886;-3.904;2023-06-14T03:22:08;19.80;85.40
51007;DHT22;37034;47.886;-3.904;2023-06-14T03:24:34;19.80;85.50
51007;DHT22;37034;47.886;-3.904;2023-06-14T03:27:02;19.70;85.40
51007;DHT22;37034;47.886;-3.904;2023-06-14T03:29:28;19.70;85.40
51007;DHT22;37034;47.886;-3.904;2023-06-14T03:32:01;19.70;86.30
51007;DHT22;37034;47.886;-3.904;2023-06-14T03:34:27;19.70;85.50
51007;DHT22;37034;47.886;-3.904;2023-06-14T03:36:53;19.60;85.70
51007;DHT22;37034;47.886;-3.904;2023-06-14T03:39:19;19.60;85.90
51007;DHT22;37034;47.886;-3.904;2023-06-14T03:41:45;19.60;86.00
51007;DHT22;37034;47.886;-3.904;2023-06-14T03:44:11;19.50;86.70
51007;DHT22;37034;47.886;-3.904;2023-06-14T03:46:36;19.50;86.50
51007;DHT22;37034;47.886;-3.904;2023-06-14T03:49:02;19.50;86.60
51007;DHT22;37034;47.886;-3.904;2023-06-14T03:51:28;19.50;86.40
51007;DHT22;37034;47.886;-3.904;2023-06-14T03:53:54;19.50;86.30
51007;DHT22;37034;47.886;-3.904;2023-06-14T03:56:21;19.50;86.20
51007;DHT22;37034;47.886;-3.904;2023-06-14T03:58:47;19.60;86.30
51007;DHT22;37034;47.886;-3.904;2023-06-14T04:01:13;19.50;86.10
51007;DHT22;37034;47.886;-3.904;2023-06-14T04:03:39;19.50;86.10
51007;DHT22;37034;47.886;-3.904;2023-06-14T04:06:06;19.50;86.20
51007;DHT22;37034;47.886;-3.904;2023-06-14T04:08:32;19.50;86.30
51007;DHT22;37034;47.886;-3.904;2023-06-14T04:10:57;19.50;86.30
51007;DHT22;37034;47.886;-3.904;2023-06-14T04:13:23;19.50;86.40
51007;DHT22;37034;47.886;-3.904;2023-06-14T04:15:49;19.50;86.50
51007;DHT22;37034;47.886;-3.904;2023-06-14T04:18:14;19.50;86.80
51007;DHT22;37034;47.886;-3.904;2023-06-14T04:20:40;19.40;87.00
51007;DHT22;37034;47.886;-3.904;2023-06-14T04:23:16;19.40;87.10
51007;DHT22;37034;47.886;-3.904;2023-06-14T04:25:44;19.30;87.60
51007;DHT22;37034;47.886;-3.904;2023-06-14T04:28:15;19.20;87.40
51007;DHT22;37034;47.886;-3.904;2023-06-14T04:30:41;19.20;87.90
51007;DHT22;37034;47.886;-3.904;2023-06-14T04:33:07;19.30;88.30
51007;DHT22;37034;47.886;-3.904;2023-06-14T04:35:33;19.30;87.80
51007;DHT22;37034;47.886;-3.904;2023-06-14T04:38:01;19.20;88.30
51007;DHT22;37034;47.886;-3.904;2023-06-14T04:40:30;19.10;88.30
51007;DHT22;37034;47.886;-3.904;2023-06-14T04:42:57;19.20;88.40
51007;DHT22;37034;47.886;-3.904;2023-06-14T04:45:23;19.20;88.40
51007;DHT22;37034;47.886;-3.904;2023-06-14T04:47:49;19.10;88.60
51007;DHT22;37034;47.886;-3.904;2023-06-14T04:50:16;19.20;89.20
51007;DHT22;37034;47.886;-3.904;2023-06-14T04:52:43;19.30;88.60
51007;DHT22;37034;47.886;-3.904;2023-06-14T04:55:09;19.30;88.70
51007;DHT22;37034;47.886;-3.904;2023-06-14T04:57:35;19.30;88.60
51007;DHT22;37034;47.886;-3.904;2023-06-14T05:00:01;19.30;88.60
51007;DHT22;37034;47.886;-3.904;2023-06-14T05:02:29;19.30;88.70
51007;DHT22;37034;47.886;-3.904;2023-06-14T05:04:56;19.30;88.60
51007;DHT22;37034;47.886;-3.904;2023-06-14T05:07:22;19.40;88.80
51007;DHT22;37034;47.886;-3.904;2023-06-14T05:09:49;19.50;88.70
51007;DHT22;37034;47.886;-3.904;2023-06-14T05:12:15;19.50;88.60
51007;DHT22;37034;47.886;-3.904;2023-06-14T05:14:44;19.60;88.60
51007;DHT22;37034;47.886;-3.904;2023-06-14T05:17:10;19.60;88.60
51007;DHT22;37034;47.886;-3.904;2023-06-14T05:19:35;19.60;88.60
51007;DHT22;37034;47.886;-3.904;2023-06-14T05:22:01;19.60;88.80
51007;DHT22;37034;47.886;-3.904;2023-06-14T05:24:28;19.70;88.70
51007;DHT22;37034;47.886;-3.904;2023-06-14T05:26:56;19.70;88.70
51007;DHT22;37034;47.886;-3.904;2023-06-14T05:29:22;19.80;88.90
51007;DHT22;37034;47.886;-3.904;2023-06-14T05:31:47;19.80;88.80
51007;DHT22;37034;47.886;-3.904;2023-06-14T05:34:13;19.80;88.70
51007;DHT22;37034;47.886;-3.904;2023-06-14T05:36:38;19.80;88.90
51007;DHT22;37034;47.886;-3.904;2023-06-14T05:39:04;19.90;89.00
51007;DHT22;37034;47.886;-3.904;2023-06-14T05:41:31;19.90;89.00
51007;DHT22;37034;47.886;-3.904;2023-06-14T05:43:56;20.00;89.20
51007;DHT22;37034;47.886;-3.904;2023-06-14T05:46:23;20.00;89.20
51007;DHT22;37034;47.886;-3.904;2023-06-14T05:48:52;20.00;89.10
51007;DHT22;37034;47.886;-3.904;2023-06-14T05:51:18;20.00;89.30
51007;DHT22;37034;47.886;-3.904;2023-06-14T05:53:48;20.00;89.40
51007;DHT22;37034;47.886;-3.904;2023-06-14T05:56:14;20.00;89.40
51007;DHT22;37034;47.886;-3.904;2023-06-14T05:58:41;20.00;89.20
51007;DHT22;37034;47.886;-3.904;2023-06-14T06:01:06;20.00;89.20
51007;DHT22;37034;47.886;-3.904;2023-06-14T06:03:32;19.90;89.20
51007;DHT22;37034;47.886;-3.904;2023-06-14T06:05:58;20.00;89.50
51007;DHT22;37034;47.886;-3.904;2023-06-14T06:08:24;19.90;89.40
51007;DHT22;37034;47.886;-3.904;2023-06-14T06:10:50;19.80;89.50
51007;DHT22;37034;47.886;-3.904;2023-06-14T06:13:16;19.70;89.70
51007;DHT22;37034;47.886;-3.904;2023-06-14T06:15:41;19.50;90.20
51007;DHT22;37034;47.886;-3.904;2023-06-14T06:18:07;19.50;90.20
51007;DHT22;37034;47.886;-3.904;2023-06-14T06:20:33;19.60;90.30
51007;DHT22;37034;47.886;-3.904;2023-06-14T06:22:59;19.70;90.20
51007;DHT22;37034;47.886;-3.904;2023-06-14T06:25:26;19.60;90.10
51007;DHT22;37034;47.886;-3.904;2023-06-14T06:27:57;19.70;90.20
51007;DHT22;37034;47.886;-3.904;2023-06-14T06:30:23;19.80;90.20
51007;DHT22;37034;47.886;-3.904;2023-06-14T06:32:49;19.90;90.10
51007;DHT22;37034;47.886;-3.904;2023-06-14T06:35:14;19.70;90.00
51007;DHT22;37034;47.886;-3.904;2023-06-14T06:37:41;19.80;90.10
51007;DHT22;37034;47.886;-3.904;2023-06-14T06:40:07;19.60;90.10
51007;DHT22;37034;47.886;-3.904;2023-06-14T06:42:34;19.70;90.20
51007;DHT22;37034;47.886;-3.904;2023-06-14T06:45:00;19.70;90.40
51007;DHT22;37034;47.886;-3.904;2023-06-14T06:47:26;19.70;90.30
51007;DHT22;37034;47.886;-3.904;2023-06-14T06:49:51;19.70;90.40
51007;DHT22;37034;47.886;-3.904;2023-06-14T06:52:17;19.70;90.40
51007;DHT22;37034;47.886;-3.904;2023-06-14T06:54:43;19.70;90.40
51007;DHT22;37034;47.886;-3.904;2023-06-14T06:57:08;19.90;90.50
51007;DHT22;37034;47.886;-3.904;2023-06-14T06:59:36;19.80;90.70
51007;DHT22;37034;47.886;-3.904;2023-06-14T07:02:02;19.90;90.80
51007;DHT22;37034;47.886;-3.904;2023-06-14T07:04:28;20.10;90.70
51007;DHT22;37034;47.886;-3.904;2023-06-14T07:06:54;20.20;90.40
51007;DHT22;37034;47.886;-3.904;2023-06-14T07:09:19;20.30;90.60
51007;DHT22;37034;47.886;-3.904;2023-06-14T07:11:47;20.40;90.50
51007;DHT22;37034;47.886;-3.904;2023-06-14T07:14:12;20.60;90.30
51007;DHT22;37034;47.886;-3.904;2023-06-14T07:16:39;20.70;90.10
51007;DHT22;37034;47.886;-3.904;2023-06-14T07:19:04;20.60;89.80
51007;DHT22;37034;47.886;-3.904;2023-06-14T07:21:30;20.60;90.00
51007;DHT22;37034;47.886;-3.904;2023-06-14T07:23:56;20.60;89.80
51007;DHT22;37034;47.886;-3.904;2023-06-14T07:26:22;20.50;89.40
51007;DHT22;37034;47.886;-3.904;2023-06-14T07:28:48;20.40;90.10
51007;DHT22;37034;47.886;-3.904;2023-06-14T07:31:15;20.50;89.80
51007;DHT22;37034;47.886;-3.904;2023-06-14T07:33:42;20.70;90.30
51007;DHT22;37034;47.886;-3.904;2023-06-14T07:36:08;20.90;89.70
51007;DHT22;37034;47.886;-3.904;2023-06-14T07:38:34;21.10;90.00
51007;DHT22;37034;47.886;-3.904;2023-06-14T07:41:00;21.30;89.70
51007;DHT22;37034;47.886;-3.904;2023-06-14T07:43:26;21.30;88.50
51007;DHT22;37034;47.886;-3.904;2023-06-14T07:45:51;21.40;88.60
51007;DHT22;37034;47.886;-3.904;2023-06-14T07:48:17;21.50;88.60
51007;DHT22;37034;47.886;-3.904;2023-06-14T07:50:43;21.60;88.30
51007;DHT22;37034;47.886;-3.904;2023-06-14T07:53:09;21.70;88.00
51007;DHT22;37034;47.886;-3.904;2023-06-14T07:55:35;21.80;88.70
51007;DHT22;37034;47.886;-3.904;2023-06-14T07:58:03;21.90;88.30
51007;DHT22;37034;47.886;-3.904;2023-06-14T08:00:29;22.00;88.20
51007;DHT22;37034;47.886;-3.904;2023-06-14T08:02:54;22.20;87.50
51007;DHT22;37034;47.886;-3.904;2023-06-14T08:05:27;22.20;88.30
51007;DHT22;37034;47.886;-3.904;2023-06-14T08:07:53;22.40;88.20
51007;DHT22;37034;47.886;-3.904;2023-06-14T08:10:19;22.50;87.00
51007;DHT22;37034;47.886;-3.904;2023-06-14T08:12:45;22.60;86.60
51007;DHT22;37034;47.886;-3.904;2023-06-14T08:15:11;22.60;87.60
51007;DHT22;37034;47.886;-3.904;2023-06-14T08:17:37;22.80;86.40
51007;DHT22;37034;47.886;-3.904;2023-06-14T08:20:03;22.70;86.20
51007;DHT22;37034;47.886;-3.904;2023-06-14T08:22:30;22.50;86.10
51007;DHT22;37034;47.886;-3.904;2023-06-14T08:25:02;22.50;86.60
51007;DHT22;37034;47.886;-3.904;2023-06-14T08:27:28;22.70;86.90
51007;DHT22;37034;47.886;-3.904;2023-06-14T08:29:54;22.70;86.40
51007;DHT22;37034;47.886;-3.904;2023-06-14T08:32:20;22.90;87.30
51007;DHT22;37034;47.886;-3.904;2023-06-14T08:34:46;23.10;86.60
51007;DHT22;37034;47.886;-3.904;2023-06-14T08:37:11;23.20;85.90
51007;DHT22;37034;47.886;-3.904;2023-06-14T08:39:37;23.30;86.10
51007;DHT22;37034;47.886;-3.904;2023-06-14T08:42:04;23.40;86.40
51007;DHT22;37034;47.886;-3.904;2023-06-14T08:44:32;23.70;86.00
51007;DHT22;37034;47.886;-3.904;2023-06-14T08:46:59;23.80;85.60
51007;DHT22;37034;47.886;-3.904;2023-06-14T08:49:26;24.00;84.30
51007;DHT22;37034;47.886;-3.904;2023-06-14T08:51:59;23.90;84.70
51007;DHT22;37034;47.886;-3.904;2023-06-14T08:54:29;23.80;84.00
51007;DHT22;37034;47.886;-3.904;2023-06-14T08:57:02;23.90;85.10
51007;DHT22;37034;47.886;-3.904;2023-06-14T08:59:30;24.00;84.60
51007;DHT22;37034;47.886;-3.904;2023-06-14T09:01:59;24.20;84.20
51007;DHT22;37034;47.886;-3.904;2023-06-14T09:04:25;24.20;84.00
51007;DHT22;37034;47.886;-3.904;2023-06-14T09:06:55;24.10;82.50
51007;DHT22;37034;47.886;-3.904;2023-06-14T09:09:21;24.10;84.10
51007;DHT22;37034;47.886;-3.904;2023-06-14T09:11:51;24.10;83.80
51007;DHT22;37034;47.886;-3.904;2023-06-14T09:14:23;24.20;83.00
51007;DHT22;37034;47.886;-3.904;2023-06-14T09:16:52;24.20;84.20
51007;DHT22;37034;47.886;-3.904;2023-06-14T09:19:23;24.40;83.80
51007;DHT22;37034;47.886;-3.904;2023-06-14T09:21:49;24.60;83.50
51007;DHT22;37034;47.886;-3.904;2023-06-14T09:24:14;24.80;82.90
51007;DHT22;37034;47.886;-3.904;2023-06-14T09:26:40;24.80;81.60
51007;DHT22;37034;47.886;-3.904;2023-06-14T09:29:06;24.80;81.80
51007;DHT22;37034;47.886;-3.904;2023-06-14T09:31:32;24.70;82.50
51007;DHT22;37034;47.886;-3.904;2023-06-14T09:33:58;24.90;81.90
51007;DHT22;37034;47.886;-3.904;2023-06-14T09:36:25;25.00;82.60
51007;DHT22;37034;47.886;-3.904;2023-06-14T09:38:58;25.10;82.90
51007;DHT22;37034;47.886;-3.904;2023-06-14T09:41:41;25.30;82.70
51007;DHT22;37034;47.886;-3.904;2023-06-14T09:44:08;25.30;81.00
51007;DHT22;37034;47.886;-3.904;2023-06-14T09:46:35;25.20;80.40
51007;DHT22;37034;47.886;-3.904;2023-06-14T09:49:03;25.20;81.60
51007;DHT22;37034;47.886;-3.904;2023-06-14T09:51:29;25.20;82.10
51007;DHT22;37034;47.886;-3.904;2023-06-14T09:53:59;25.20;81.60
51007;DHT22;37034;47.886;-3.904;2023-06-14T09:56:30;25.40;81.60
51007;DHT22;37034;47.886;-3.904;2023-06-14T09:58:58;25.50;81.60
51007;DHT22;37034;47.886;-3.904;2023-06-14T10:01:25;25.70;81.10
51007;DHT22;37034;47.886;-3.904;2023-06-14T10:03:57;25.70;81.70
51007;DHT22;37034;47.886;-3.904;2023-06-14T10:06:25;25.80;81.30
51007;DHT22;37034;47.886;-3.904;2023-06-14T10:08:57;26.00;81.10
51007;DHT22;37034;47.886;-3.904;2023-06-14T10:11:26;26.00;80.60
51007;DHT22;37034;47.886;-3.904;2023-06-14T10:13:52;26.10;80.20
51007;DHT22;37034;47.886;-3.904;2023-06-14T10:16:45;26.40;81.50
51007;DHT22;37034;47.886;-3.904;2023-06-14T10:19:20;26.50;78.50
51007;DHT22;37034;47.886;-3.904;2023-06-14T10:22:13;26.50;80.30
51007;DHT22;37034;47.886;-3.904;2023-06-14T10:24:44;26.60;79.10
51007;DHT22;37034;47.886;-3.904;2023-06-14T10:27:13;26.70;79.10
51007;DHT22;37034;47.886;-3.904;2023-06-14T10:32:20;26.90;78.30
51007;DHT22;37034;47.886;-3.904;2023-06-14T10:34:54;27.00;79.10
51007;DHT22;37034;47.886;-3.904;2023-06-14T10:37:20;27.10;79.80
51007;DHT22;37034;47.886;-3.904;2023-06-14T10:39:46;27.30;79.00
51007;DHT22;37034;47.886;-3.904;2023-06-14T10:42:13;27.30;78.90
51007;DHT22;37034;47.886;-3.904;2023-06-14T10:44:39;27.20;77.20
51007;DHT22;37034;47.886;-3.904;2023-06-14T10:47:30;27.00;78.10
51007;DHT22;37034;47.886;-3.904;2023-06-14T10:52:38;27.20;78.90
51007;DHT22;37034;47.886;-3.904;2023-06-14T10:55:07;27.50;79.30
51007;DHT22;37034;47.886;-3.904;2023-06-14T10:57:51;27.70;79.00
51007;DHT22;37034;47.886;-3.904;2023-06-14T11:00:19;27.90;77.40
51007;DHT22;37034;47.886;-3.904;2023-06-14T11:04:00;28.00;77.50
51007;DHT22;37034;47.886;-3.904;2023-06-14T11:06:13;28.00;76.30
51007;DHT22;37034;47.886;-3.904;2023-06-14T11:11:36;28.10;76.40
51007;DHT22;37034;47.886;-3.904;2023-06-14T11:14:04;28.20;76.90
51007;DHT22;37034;47.886;-3.904;2023-06-14T11:16:30;28.30;76.90
51007;DHT22;37034;47.886;-3.904;2023-06-14T11:19:00;28.10;74.70
51007;DHT22;37034;47.886;-3.904;2023-06-14T11:21:27;28.10;76.30
51007;DHT22;37034;47.886;-3.904;2023-06-14T11:23:56;27.90;75.30
51007;DHT22;37034;47.886;-3.904;2023-06-14T11:26:29;27.90;74.70
51007;DHT22;37034;47.886;-3.904;2023-06-14T11:28:59;27.80;75.30
51007;DHT22;37034;47.886;-3.904;2023-06-14T11:31:26;28.00;75.40
51007;DHT22;37034;47.886;-3.904;2023-06-14T11:33:54;28.10;77.00
51007;DHT22;37034;47.886;-3.904;2023-06-14T11:36:21;28.20;76.50
51007;DHT22;37034;47.886;-3.904;2023-06-14T11:38:46;28.30;75.60
51007;DHT22;37034;47.886;-3.904;2023-06-14T11:41:12;28.50;75.20
51007;DHT22;37034;47.886;-3.904;2023-06-14T11:43:37;28.70;76.10
51007;DHT22;37034;47.886;-3.904;2023-06-14T11:46:11;28.90;73.50
51007;DHT22;37034;47.886;-3.904;2023-06-14T11:48:42;28.90;73.50
51007;DHT22;37034;47.886;-3.904;2023-06-14T11:51:08;28.80;73.80
51007;DHT22;37034;47.886;-3.904;2023-06-14T11:53:33;28.80;73.90
51007;DHT22;37034;47.886;-3.904;2023-06-14T11:55:59;28.90;73.40
51007;DHT22;37034;47.886;-3.904;2023-06-14T11:58:25;29.00;74.50
51007;DHT22;37034;47.886;-3.904;2023-06-14T12:00:53;29.20;73.30
51007;DHT22;37034;47.886;-3.904;2023-06-14T12:03:25;29.30;74.60
51007;DHT22;37034;47.886;-3.904;2023-06-14T12:06:05;29.40;74.50
51007;DHT22;37034;47.886;-3.904;2023-06-14T12:08:36;29.50;73.80
51007;DHT22;37034;47.886;-3.904;2023-06-14T12:11:12;29.70;75.10
51007;DHT22;37034;47.886;-3.904;2023-06-14T12:13:41;29.90;73.80
51007;DHT22;37034;47.886;-3.904;2023-06-14T12:16:11;29.70;72.20
51007;DHT22;37034;47.886;-3.904;2023-06-14T12:18:39;29.60;73.40
51007;DHT22;37034;47.886;-3.904;2023-06-14T12:21:07;29.70;73.10
51007;DHT22;37034;47.886;-3.904;2023-06-14T12:23:46;29.60;73.00
51007;DHT22;37034;47.886;-3.904;2023-06-14T12:26:13;29.70;72.60
51007;DHT22;37034;47.886;-3.904;2023-06-14T12:28:40;29.80;72.90
51007;DHT22;37034;47.886;-3.904;2023-06-14T12:31:08;29.80;72.40
51007;DHT22;37034;47.886;-3.904;2023-06-14T12:33:33;30.00;73.20
51007;DHT22;37034;47.886;-3.904;2023-06-14T12:35:59;30.10;71.90
51007;DHT22;37034;47.886;-3.904;2023-06-14T12:38:25;30.10;72.40
51007;DHT22;37034;47.886;-3.904;2023-06-14T12:40:50;30.10;72.10
51007;DHT22;37034;47.886;-3.904;2023-06-14T12:43:16;30.10;71.50
51007;DHT22;37034;47.886;-3.904;2023-06-14T12:45:42;30.10;71.60
51007;DHT22;37034;47.886;-3.904;2023-06-14T12:48:07;30.00;71.70
51007;DHT22;37034;47.886;-3.904;2023-06-14T12:50:34;29.90;72.00
51007;DHT22;37034;47.886;-3.904;2023-06-14T12:53:00;29.90;72.50
51007;DHT22;37034;47.886;-3.904;2023-06-14T12:55:25;30.00;73.30
51007;DHT22;37034;47.886;-3.904;2023-06-14T12:57:51;30.10;72.70
51007;DHT22;37034;47.886;-3.904;2023-06-14T13:00:17;30.10;70.90
51007;DHT22;37034;47.886;-3.904;2023-06-14T13:02:43;30.10;71.60
51007;DHT22;37034;47.886;-3.904;2023-06-14T13:05:09;30.00;71.20
51007;DHT22;37034;47.886;-3.904;2023-06-14T13:07:35;30.10;71.30
51007;DHT22;37034;47.886;-3.904;2023-06-14T13:10:00;30.10;71.60
51007;DHT22;37034;47.886;-3.904;2023-06-14T13:12:26;30.10;71.00
51007;DHT22;37034;47.886;-3.904;2023-06-14T13:14:51;30.00;71.20
51007;DHT22;37034;47.886;-3.904;2023-06-14T13:17:17;29.90;72.30
51007;DHT22;37034;47.886;-3.904;2023-06-14T13:19:43;30.20;73.10
51007;DHT22;37034;47.886;-3.904;2023-06-14T13:22:08;30.40;72.40
51007;DHT22;37034;47.886;-3.904;2023-06-14T13:24:34;30.60;72.30
51007;DHT22;37034;47.886;-3.904;2023-06-14T13:27:00;30.70;70.80
51007;DHT22;37034;47.886;-3.904;2023-06-14T13:29:25;30.80;72.00
51007;DHT22;37034;47.886;-3.904;2023-06-14T13:31:52;30.90;71.20
51007;DHT22;37034;47.886;-3.904;2023-06-14T13:34:18;30.90;71.30
51007;DHT22;37034;47.886;-3.904;2023-06-14T13:36:44;30.90;70.90
51007;DHT22;37034;47.886;-3.904;2023-06-14T13:39:09;30.90;71.30
51007;DHT22;37034;47.886;-3.904;2023-06-14T13:41:36;30.90;70.40
51007;DHT22;37034;47.886;-3.904;2023-06-14T13:44:02;30.80;70.20
51007;DHT22;37034;47.886;-3.904;2023-06-14T13:46:31;30.60;70.40
51007;DHT22;37034;47.886;-3.904;2023-06-14T13:48:57;30.60;70.80
51007;DHT22;37034;47.886;-3.904;2023-06-14T13:51:23;30.60;71.00
51007;DHT22;37034;47.886;-3.904;2023-06-14T13:53:49;30.60;70.30
51007;DHT22;37034;47.886;-3.904;2023-06-14T13:56:16;30.60;71.40
51007;DHT22;37034;47.886;-3.904;2023-06-14T13:58:42;30.70;71.00
51007;DHT22;37034;47.886;-3.904;2023-06-14T14:01:09;30.60;70.00
51007;DHT22;37034;47.886;-3.904;2023-06-14T14:03:35;30.50;70.50
51007;DHT22;37034;47.886;-3.904;2023-06-14T14:06:02;30.50;70.70
51007;DHT22;37034;47.886;-3.904;2023-06-14T14:08:29;30.50;70.60
51007;DHT22;37034;47.886;-3.904;2023-06-14T14:10:54;30.70;71.00
51007;DHT22;37034;47.886;-3.904;2023-06-14T14:13:21;30.70;70.00
51007;DHT22;37034;47.886;-3.904;2023-06-14T14:15:47;30.50;70.80
51007;DHT22;37034;47.886;-3.904;2023-06-14T14:18:14;30.50;71.20
51007;DHT22;37034;47.886;-3.904;2023-06-14T14:20:40;30.70;71.20
51007;DHT22;37034;47.886;-3.904;2023-06-14T14:23:06;30.70;70.50
51007;DHT22;37034;47.886;-3.904;2023-06-14T14:25:31;30.80;70.80
51007;DHT22;37034;47.886;-3.904;2023-06-14T14:27:57;30.80;70.00
51007;DHT22;37034;47.886;-3.904;2023-06-14T14:30:23;30.80;70.60
51007;DHT22;37034;47.886;-3.904;2023-06-14T14:32:49;30.80;70.50
51007;DHT22;37034;47.886;-3.904;2023-06-14T14:35:16;30.90;70.20
51007;DHT22;37034;47.886;-3.904;2023-06-14T14:37:43;30.90;70.00
51007;DHT22;37034;47.886;-3.904;2023-06-14T14:40:09;30.70;69.10
51007;DHT22;37034;47.886;-3.904;2023-06-14T14:42:36;30.60;70.80
51007;DHT22;37034;47.886;-3.904;2023-06-14T14:45:02;30.80;71.00
51007;DHT22;37034;47.886;-3.904;2023-06-14T14:47:28;31.00;69.60
51007;DHT22;37034;47.886;-3.904;2023-06-14T14:49:53;30.90;70.60
51007;DHT22;37034;47.886;-3.904;2023-06-14T14:52:19;31.10;70.20
51007;DHT22;37034;47.886;-3.904;2023-06-14T14:54:44;31.10;70.20
51007;DHT22;37034;47.886;-3.904;2023-06-14T14:57:10;31.20;69.40
51007;DHT22;37034;47.886;-3.904;2023-06-14T14:59:36;31.20;69.00
51007;DHT22;37034;47.886;-3.904;2023-06-14T15:02:01;31.20;69.80
51007;DHT22;37034;47.886;-3.904;2023-06-14T15:04:27;31.20;69.40
51007;DHT22;37034;47.886;-3.904;2023-06-14T15:06:53;31.20;69.60
51007;DHT22;37034;47.886;-3.904;2023-06-14T15:09:18;31.30;69.30
51007;DHT22;37034;47.886;-3.904;2023-06-14T15:11:44;31.20;68.90
51007;DHT22;37034;47.886;-3.904;2023-06-14T15:14:10;31.20;68.90
51007;DHT22;37034;47.886;-3.904;2023-06-14T15:16:36;31.20;69.30
51007;DHT22;37034;47.886;-3.904;2023-06-14T15:19:01;31.20;69.90
51007;DHT22;37034;47.886;-3.904;2023-06-14T15:21:27;31.30;68.50
51007;DHT22;37034;47.886;-3.904;2023-06-14T15:23:52;31.20;69.10
51007;DHT22;37034;47.886;-3.904;2023-06-14T15:26:19;31.20;69.00